Time;durP1;ratioP1;P1;durP2;ratioP2;P2;SDS_P1;SDS_P2;PMS_P1;PMS_P2;Temp;Humidity;BMP_temperature;BMP_pressure;BME280_temperature;BME280_humidity;BME280_pressure;Samples;Min_cycle;Max_cycle;Signal;HPM_P1;HPM_P2
2022/05/04 00:01:44;;;;;;;11.40;3.60;;;;;;;-146.64;100.00;39722.56;5023916;28;20109;-78
2022/05/04 00:04:09;;;;;;;15.73;4.22;;;;;;;-146.64;100.00;39693.91;5007173;28;20033;-79
2022/05/04 00:06:34;;;;;;;12.83;4.17;;;;;;;-146.64;100.00;39700.06;5025009;28;20042;-78
2022/05/04 00:09:00;;;;;;;10.35;3.55;;;;;;;-146.64;100.00;39714.38;5025185;28;20025;-78
2022/05/04 00:11:25;;;;;;;17.35;5.57;;;;;;;-146.64;100.00;39708.25;5025037;28;20030;-77
2022/05/04 00:13:50;;;;;;;14.85;4.30;;;;;;;-146.64;100.00;39648.88;5023876;28;20064;-78
2022/05/04 00:16:16;;;;;;;9.97;3.07;;;;;;;-146.64;100.00;39636.59;5007492;28;20050;-78
2022/05/04 00:18:41;;;;;;;15.73;3.85;;;;;;;-146.64;100.00;39812.63;4991778;28;20021;-77
2022/05/04 00:21:07;;;;;;;9.52;3.55;;;;;;;-146.64;100.00;39751.22;5008386;28;20026;-77
2022/05/04 00:23:33;;;;;;;11.37;5.07;;;;;;;-146.64;100.00;39792.16;5005930;28;20026;-78
2022/05/04 00:25:59;;;;;;;11.50;3.97;;;;;;;-146.64;100.00;39800.34;5003903;28;20034;-77
2022/05/04 00:28:25;;;;;;;13.50;4.20;;;;;;;-146.64;100.00;39804.44;5004253;28;20309;-78
2022/05/04 00:30:56;;;;;;;11.10;4.03;;;;;;;-146.64;100.00;39689.81;5002386;28;20470;-78
2022/05/04 00:33:22;;;;;;;12.23;4.10;;;;;;;-146.64;100.00;39796.25;5003611;28;20068;-77
2022/05/04 00:35:48;;;;;;;21.67;4.53;;;;;;;-146.64;100.00;39790.13;4989253;28;20038;-79
2022/05/04 00:38:14;;;;;;;9.93;3.80;;;;;;;-146.64;100.00;39767.59;5019315;28;20034;-77
2022/05/04 00:40:39;;;;;;;16.00;4.43;;;;;;;-146.64;100.00;39759.41;5018670;28;20030;-76
2022/05/04 00:43:19;;;;;;;12.60;4.00;;;;;;;-146.64;100.00;39757.38;5018800;28;20083;-77
2022/05/04 00:45:44;;;;;;;15.38;4.68;;;;;;;-146.64;100.00;39820.81;5018331;28;20069;-77
2022/05/04 00:48:09;;;;;;;11.55;3.95;;;;;;;-146.64;100.00;39769.66;5018786;28;20029;-77
2022/05/04 00:50:35;;;;;;;12.18;3.92;;;;;;;-146.64;100.00;39771.69;5018902;28;20052;-77
2022/05/04 00:53:00;;;;;;;13.10;3.90;;;;;;;-146.64;100.00;39781.94;5001920;28;20092;-77
2022/05/04 00:55:25;;;;;;;9.18;3.72;;;;;;;-146.64;100.00;39775.78;5002312;28;20034;-77
2022/05/04 01:00:35;;;;;;;11.85;3.90;;;;;;;-146.64;100.00;39808.53;5018162;28;20040;-78
2022/05/04 01:03:00;;;;;;;9.40;3.60;;;;;;;-146.64;100.00;39781.94;5001092;28;20057;-77
2022/05/04 01:05:26;;;;;;;13.10;4.68;;;;;;;-146.64;100.00;39835.16;5017829;28;20064;-77
2022/05/04 01:07:51;;;;;;;13.65;3.90;;;;;;;-146.64;100.00;39738.94;5000256;28;20080;-78
2022/05/04 01:10:17;;;;;;;14.50;4.40;;;;;;;-146.64;100.00;39853.56;5016563;28;20030;-77
2022/05/04 01:12:53;;;;;;;9.73;4.13;;;;;;;-146.64;100.00;39874.03;4998934;28;20056;-78
2022/05/04 01:15:20;;;;;;;12.73;4.32;;;;;;;-146.64;100.00;39851.53;4999668;28;20025;-77
2022/05/04 01:17:47;;;;;;;12.35;4.50;;;;;;;-146.64;100.00;39865.84;4998907;28;20096;-78
2022/05/04 01:20:13;;;;;;;9.77;3.88;;;;;;;-146.64;100.00;39955.91;4999336;28;20046;-78
2022/05/04 01:22:38;;;;;;;7.88;4.05;;;;;;;-146.64;100.00;39970.25;5016862;28;20029;-78
2022/05/04 01:25:04;;;;;;;12.55;3.90;;;;;;;-146.64;100.00;39960.00;4998862;28;20072;-76
2022/05/04 01:27:30;;;;;;;12.17;3.97;;;;;;;-146.64;100.00;40017.31;5015131;28;20115;-76
2022/05/04 01:29:55;;;;;;;17.58;5.03;;;;;;;-146.64;100.00;39960.00;4982537;28;20488;-77
2022/05/04 01:32:21;;;;;;;8.57;4.30;;;;;;;-146.64;100.00;40003.00;5015033;28;20435;-77
2022/05/04 01:34:46;;;;;;;14.00;3.90;;;;;;;-146.64;100.00;40005.03;5015530;28;20040;-76
2022/05/04 01:37:11;;;;;;;16.90;4.25;;;;;;;-146.64;100.00;40035.75;4982408;28;20057;-76
2022/05/04 01:39:37;;;;;;;18.17;5.18;;;;;;;-146.64;100.00;40025.50;4998122;28;20046;-77
2022/05/04 01:42:02;;;;;;;12.05;4.78;;;;;;;-146.64;100.00;40045.97;4998865;28;20038;-77
2022/05/04 01:44:31;;;;;;;15.23;4.78;;;;;;;-146.64;100.00;40035.75;5016043;28;20038;-78
2022/05/04 01:46:56;;;;;;;14.68;4.30;;;;;;;-146.64;100.00;40066.44;4999031;28;20472;-77
2022/05/04 01:49:22;;;;;;;17.45;6.10;;;;;;;-146.64;100.00;40152.41;5016455;28;20045;-77
2022/05/04 01:52:02;;;;;;;13.90;4.70;;;;;;;-146.64;100.00;40136.03;4999171;28;20113;-76
2022/05/04 01:54:28;;;;;;;12.45;4.13;;;;;;;-146.64;100.00;40064.41;4999299;28;20037;-77
2022/05/04 01:56:54;;;;;;;15.35;4.70;;;;;;;-146.64;100.00;40109.44;4999530;28;20030;-77
2022/05/04 01:59:20;;;;;;;14.13;4.38;;;;;;;-146.64;100.00;40070.53;5016442;28;20040;-77
2022/05/04 02:01:45;;;;;;;9.93;4.25;;;;;;;-146.64;100.00;40111.47;5015703;28;20034;-78
2022/05/04 02:04:13;;;;;;;18.00;5.60;;;;;;;-146.64;100.00;40148.31;4998532;28;20030;-77
2022/05/04 02:06:38;;;;;;;12.35;5.35;;;;;;;-146.64;100.00;40113.53;4998526;28;20088;-77
2022/05/04 02:09:04;;;;;;;17.48;4.95;;;;;;;-146.64;100.00;40099.19;5015135;28;20056;-78
2022/05/04 02:11:32;;;;;;;14.77;4.47;;;;;;;-146.64;100.00;40064.41;4998676;28;20488;-77
2022/05/04 02:13:58;;;;;;;14.90;4.45;;;;;;;-146.64;100.00;40060.31;5014185;28;20049;-77
2022/05/04 02:16:23;;;;;;;8.68;4.28;;;;;;;-146.64;100.00;40048.03;4998529;28;20037;-77
2022/05/04 02:18:48;;;;;;;10.88;4.28;;;;;;;-146.64;100.00;40041.88;5014184;28;20481;-78
2022/05/04 02:21:14;;;;;;;18.23;4.43;;;;;;;-146.64;100.00;40062.34;5016152;28;20029;-76
2022/05/04 02:23:39;;;;;;;12.70;4.25;;;;;;;-146.64;100.00;40113.53;4985594;28;20025;-77
2022/05/04 02:26:04;;;;;;;9.57;4.45;;;;;;;-146.64;100.00;40158.56;5002176;28;20037;-77
2022/05/04 02:28:30;;;;;;;11.93;4.45;;;;;;;-146.64;100.00;40164.72;5002642;28;20175;-76
2022/05/04 02:30:55;;;;;;;12.15;4.13;;;;;;;-146.64;100.00;40271.16;4986247;28;20130;-77
2022/05/04 02:33:21;;;;;;;13.20;5.05;;;;;;;-146.64;100.00;40406.25;5018634;28;20105;-78
2022/05/04 02:38:31;;;;;;;7.93;4.22;;;;;;;-146.64;100.00;40578.22;5019580;28;20073;-78
2022/05/04 02:40:57;;;;;;;12.70;4.60;;;;;;;-146.64;100.00;40836.19;5018325;28;20030;-77
2022/05/04 02:43:25;;;;;;;;;;;;;;;-146.64;100.00;41247.75;5019232;28;20364;-77
2022/05/04 02:45:50;;;;;;;13.30;5.10;;;;;;;-146.64;100.00;42077.09;5019378;28;19920;-77
2022/05/04 02:48:16;;;;;;;12.40;5.07;;;;;;;-146.64;100.00;42292.16;5017735;28;20663;-77
2022/05/04 02:50:41;;;;;;;16.50;4.97;;;;;;;-146.64;100.00;43818.31;5017872;28;20022;-77
2022/05/04 02:53:07;;;;;;;8.48;4.72;;;;;;;-146.64;100.00;43994.53;5018190;28;20048;-76
2022/05/04 02:55:32;;;;;;;9.25;4.93;;;;;;;-146.64;100.00;45420.91;5019619;28;20421;-77
2022/05/04 02:57:58;;;;;;;9.77;4.05;;;;;;;-146.64;100.00;43470.00;5018180;28;20026;-77
2022/05/04 03:00:24;;;;;;;13.82;5.32;;;;;;;-146.64;100.00;44937.19;5001214;28;20060;-77
2022/05/04 03:02:50;;;;;;;12.50;5.32;;;;;;;-146.64;100.00;48152.16;5017496;28;20434;-77
2022/05/04 03:05:17;;;;;;;18.30;4.80;;;;;;;-146.64;100.00;52082.16;5017476;28;20041;-77
2022/05/04 03:07:43;;;;;;;;;;;;;;;-146.64;100.00;53990.06;5017763;28;20076;-77
2022/05/04 03:10:09;;;;;;;10.10;5.03;;;;;;;-146.64;100.00;58199.34;5017739;28;19948;-77
2022/05/04 03:12:34;;;;;;;19.60;4.88;;;;;;;-146.64;100.00;61886.13;5001236;28;20345;-77
2022/05/04 03:14:59;;;;;;;13.77;5.05;;;;;;;-146.64;100.00;65048.97;5018917;28;20137;-77
2022/05/04 03:17:25;;;;;;;8.80;5.40;;;;;;;-146.64;100.00;69006.03;5017597;28;20030;-77
2022/05/04 03:19:50;;;;;;;12.00;4.95;;;;;;;-146.64;100.00;66631.31;5000660;28;20477;-78
2022/05/04 03:22:16;;;;;;;10.18;4.45;;;;;;;-146.64;100.00;65576.34;5019354;28;20088;-78
2022/05/04 03:24:41;;;;;;;14.23;5.10;;;;;;;-146.64;100.00;68742.09;5001316;28;20037;-78
2022/05/04 03:27:07;;;;;;;10.82;4.25;;;;;;;-146.64;100.00;69797.91;5018276;28;20053;-78
2022/05/04 03:29:33;;;;;;;16.02;6.15;;;;;;;-146.64;100.00;69533.94;4985025;28;20412;-78
2022/05/04 03:31:59;;;;;;;9.43;4.70;;;;;;;-146.64;100.00;65840.06;5001265;28;20034;-78
2022/05/04 03:34:25;;;;;;;12.88;5.20;;;;;;;-146.64;100.00;71382.16;4999956;28;20117;-77
2022/05/04 03:36:51;;;;;;;11.60;5.28;;;;;;;-146.64;100.00;74552.53;5018851;28;20060;-78
2022/05/04 03:39:17;;;;;;;11.48;4.88;;;;;;;-146.64;100.00;69006.03;5017518;28;20034;-79
2022/05/04 03:41:42;;;;;;;9.20;4.90;;;;;;;-146.64;100.00;70061.91;5001698;28;20030;-78
2022/05/04 03:44:08;;;;;;;10.40;4.90;;;;;;;-146.64;100.00;75081.16;4984927;28;20053;-77
2022/05/04 03:46:45;;;;;;;15.43;5.10;;;;;;;-146.64;100.00;79312.78;5001166;28;20034;-78
2022/05/04 03:49:11;;;;;;;17.65;5.35;;;;;;;-146.64;100.00;77460.91;5018345;28;20030;-77
2022/05/04 03:51:36;;;;;;;13.32;5.53;;;;;;;-146.64;100.00;75081.16;5001109;28;20088;-78
2022/05/04 03:54:02;;;;;;;10.75;5.07;;;;;;;-146.64;100.00;71910.38;5000961;28;20086;-78
2022/05/04 03:56:27;;;;;;;11.15;4.70;;;;;;;-146.64;100.00;77196.41;5000716;28;20051;-77
2022/05/04 03:58:53;;;;;;;12.48;5.15;;;;;;;-146.64;100.00;75345.50;5018377;28;20038;-78
2022/05/04 04:01:18;;;;;;;11.20;5.28;;;;;;;-146.64;100.00;76138.66;5017675;28;20057;-79
2022/05/04 04:03:44;;;;;;;11.90;5.45;;;;;;;-146.64;100.00;78783.59;5018463;28;20030;-77
2022/05/04 04:06:10;;;;;;;18.23;5.63;;;;;;;-146.64;100.00;81165.53;5000328;28;20038;-79
2022/05/04 04:08:35;;;;;;;12.63;5.45;;;;;;;-146.64;100.00;81695.03;5000270;28;20319;-79
2022/05/04 04:11:01;;;;;;;13.25;5.45;;;;;;;-146.64;100.00;80636.09;5017194;28;20026;-78
2022/05/04 04:13:27;;;;;;;17.25;6.82;;;;;;;-146.64;100.00;83284.00;5016966;28;20037;-78
2022/05/04 04:15:54;;;;;;;10.85;5.07;;;;;;;-146.64;100.00;79842.06;5016616;28;20148;-78
2022/05/04 04:18:19;;;;;;;11.65;5.93;;;;;;;-146.64;100.00;80636.09;5017373;28;20034;-79
2022/05/04 04:23:29;;;;;;;15.05;6.32;;;;;;;-146.64;100.00;80900.81;5016842;28;20169;-78
2022/05/04 04:25:55;;;;;;;10.60;5.47;;;;;;;-146.64;100.00;82224.63;5017577;28;20722;-78
2022/05/04 04:28:21;;;;;;;12.65;5.20;;;;;;;-146.64;100.00;80900.81;5018049;28;20044;-78
2022/05/04 04:30:48;;;;;;;9.40;5.07;;;;;;;-146.64;100.00;86463.78;5017715;28;20385;-78
2022/05/04 04:33:14;;;;;;;7.32;5.10;;;;;;;-146.64;100.00;85138.56;5016644;28;20046;-77
2022/05/04 04:35:40;;;;;;;12.15;5.40;;;;;;;-146.64;100.00;88585.03;5016427;28;20072;-78
2022/05/04 04:38:06;;;;;;;12.00;6.20;;;;;;;-146.64;100.00;90972.78;5000071;28;20040;-77
2022/05/04 04:40:31;;;;;;;13.88;5.30;;;;;;;-146.64;100.00;89115.53;4999717;28;20425;-77
2022/05/04 04:42:57;;;;;;;13.13;5.60;;;;;;;-146.64;100.00;88850.28;5017313;28;20030;-78
2022/05/04 04:45:22;;;;;;;13.98;5.32;;;;;;;-146.64;100.00;85933.66;5017383;28;20026;-77
2022/05/04 04:47:47;;;;;;;13.90;5.60;;;;;;;-146.64;100.00;85138.56;4999675;28;20030;-79
2022/05/04 04:50:14;;;;;;;16.52;5.88;;;;;;;-146.64;100.00;89911.41;4999711;28;20040;-78
2022/05/04 04:52:39;;;;;;;15.13;5.50;;;;;;;-146.64;100.00;87524.28;4999870;28;20026;-78
2022/05/04 04:55:05;;;;;;;10.20;5.32;;;;;;;-146.64;100.00;87789.44;4998189;28;20049;-78
2022/05/04 04:57:32;;;;;;;7.87;5.10;;;;;;;-146.64;100.00;85668.59;5012091;28;20029;-78
2022/05/04 04:59:57;;;;;;;11.57;5.70;;;;;;;-146.64;100.00;83813.78;4994200;28;20271;-78
2022/05/04 05:02:22;;;;;;;11.73;6.15;;;;;;;-146.64;100.00;80900.81;5010879;28;20060;-78
2022/05/04 05:04:48;;;;;;;12.65;5.72;;;;;;;-146.64;100.00;78254.47;5012237;28;20045;-80
2022/05/04 05:07:13;;;;;;;10.48;5.07;;;;;;;-146.64;100.00;71118.06;5011755;28;20029;-79
2022/05/04 05:09:38;;;;;;;10.65;5.97;;;;;;;-146.64;100.00;72174.50;5010575;28;20092;-78
2022/05/04 05:12:04;;;;;;;16.25;6.18;;;;;;;-146.64;100.00;68214.31;4993638;28;20034;-78
2022/05/04 05:17:13;;;;;;;14.95;6.65;;;;;;;-146.64;100.00;62940.13;5012356;28;20496;-78
2022/05/04 05:19:39;;;;;;;11.85;5.30;;;;;;;-146.64;100.00;57936.13;4994738;28;20034;-78
2022/05/04 05:22:04;;;;;;;14.13;6.10;;;;;;;-146.64;100.00;56620.34;4995987;28;20041;-78
2022/05/04 05:24:29;;;;;;;12.57;5.60;;;;;;;-146.64;100.00;51837.81;4996519;28;20038;-77
2022/05/04 05:26:55;;;;;;;18.20;7.10;;;;;;;-146.64;100.00;56094.16;4994413;28;20040;-78
2022/05/04 05:29:20;;;;;;;20.17;6.05;;;;;;;-146.64;100.00;51295.84;5011759;28;20026;-78
2022/05/04 05:31:45;;;;;;;24.08;6.13;;;;;;;-146.64;100.00;46999.56;5011507;28;20045;-78
2022/05/04 05:34:11;;;;;;;25.15;6.35;;;;;;;-146.64;100.00;43928.97;5011846;28;20030;-79
2022/05/04 05:36:36;;;;;;;17.05;5.80;;;;;;;-146.64;100.00;42597.34;5011392;28;20060;-78
2022/05/04 05:39:02;;;;;;;14.90;5.47;;;;;;;-146.64;100.00;41411.56;5012646;28;20484;-77
2022/05/04 05:41:28;;;;;;;20.30;5.78;;;;;;;-146.64;100.00;40177.00;4995609;28;20112;-78
2022/05/04 05:43:53;;;;;;;14.50;5.32;;;;;;;-146.64;100.00;39849.47;5011813;28;20392;-78
2022/05/04 05:46:18;;;;;;;15.00;5.30;;;;;;;-146.64;100.00;39564.97;5011434;28;20041;-78
2022/05/04 05:48:47;;;;;;;12.38;4.72;;;;;;;-146.64;100.00;39517.91;5012117;28;20037;-78
2022/05/04 05:51:12;;;;;;;20.60;5.60;;;;;;;-146.64;100.00;39460.59;5012102;28;20109;-78
2022/05/04 05:53:38;;;;;;;24.35;5.38;;;;;;;-146.64;100.00;39427.84;5012381;28;20481;-78
2022/05/04 05:56:03;;;;;;;21.08;5.40;;;;;;;-146.64;100.00;39399.19;5012923;28;20038;-79
2022/05/04 05:58:29;;;;;;;19.38;4.65;;;;;;;-146.64;100.00;39380.75;4994414;28;20025;-77
2022/05/04 06:00:57;;;;;;;19.38;4.88;;;;;;;-146.64;100.00;39356.22;5012232;28;20034;-77
2022/05/04 06:03:22;;;;;;;22.27;5.88;;;;;;;-146.64;100.00;39356.22;5012351;28;20403;-78
2022/05/04 06:05:48;;;;;;;14.02;4.68;;;;;;;-146.64;100.00;39313.22;5011503;28;20030;-77
2022/05/04 06:08:13;;;;;;;14.55;4.60;;;;;;;-146.64;100.00;39337.78;4999267;28;20030;-79
2022/05/04 06:10:39;;;;;;;15.05;4.82;;;;;;;-146.64;100.00;39210.91;5015550;28;20496;-78
2022/05/04 06:13:05;;;;;;;23.02;6.53;;;;;;;-146.64;100.00;39284.56;4994919;28;20034;-77
2022/05/04 06:15:30;;;;;;;18.08;4.90;;;;;;;-146.64;100.00;39255.94;4996884;28;20045;-79
2022/05/04 06:17:56;;;;;;;18.85;4.65;;;;;;;-146.64;100.00;39251.84;4995977;28;20034;-78
2022/05/04 06:20:23;;;;;;;21.87;4.80;;;;;;;-146.64;100.00;39221.13;4995188;28;20466;-78
2022/05/04 06:22:48;;;;;;;11.30;3.53;;;;;;;-146.64;100.00;39147.47;4999448;28;20038;-77
2022/05/04 06:25:13;;;;;;;18.07;4.60;;;;;;;-146.64;100.00;38965.31;5011780;28;20041;-78
2022/05/04 06:27:39;;;;;;;14.97;3.90;;;;;;;-146.64;100.00;38854.81;5011592;28;20476;-76
2022/05/04 06:35:32;;;;;;;12.95;3.45;;;;;;;-146.64;90.40;38654.28;5011907;28;20041;-77
2022/05/04 06:37:58;;;;;;;14.17;3.70;;;;;;;-146.64;88.67;38543.78;4978811;28;20422;-76
2022/05/04 06:40:23;;;;;;;13.63;3.23;;;;;;;-146.64;83.00;38549.91;4994061;28;20111;-76
2022/05/04 06:42:49;;;;;;;22.17;3.80;;;;;;;-146.64;79.36;38535.59;4981339;28;20037;-76
2022/05/04 06:45:14;;;;;;;16.13;3.63;;;;;;;-146.64;74.44;38459.88;4994562;28;20366;-77
2022/05/04 06:47:39;;;;;;;10.30;2.83;;;;;;;-146.64;71.47;38554.00;5011918;28;20030;-77
2022/05/04 06:50:06;;;;;;;11.97;3.70;;;;;;;-146.64;71.71;38506.94;4995277;28;20038;-77
2022/05/04 06:52:32;;;;;;;12.88;3.83;;;;;;;-146.64;74.25;38486.50;5010966;28;20032;-76
2022/05/04 06:54:57;;;;;;;11.38;3.05;;;;;;;-146.64;73.44;38541.75;5009899;28;20038;-77
2022/05/04 06:57:23;;;;;;;11.97;3.10;;;;;;;-146.64;72.15;38506.94;4993807;28;20464;-77
2022/05/04 06:59:49;;;;;;;14.27;3.10;;;;;;;-146.64;69.94;38496.72;5010438;28;20109;-78
2022/05/04 07:02:14;;;;;;;11.95;2.85;;;;;;;-146.64;66.81;38547.88;4978173;28;20025;-77
2022/05/04 07:04:39;;;;;;;9.43;3.23;;;;;;;-146.64;71.29;38531.50;4997283;28;20034;-79
2022/05/04 07:07:05;;;;;;;12.37;3.50;;;;;;;-146.64;67.51;38601.06;4996781;28;20623;-78
2022/05/04 07:09:30;;;;;;;14.73;3.50;;;;;;;-146.64;66.27;38539.69;5019653;28;20026;-78
2022/05/04 07:11:56;;;;;;;11.83;3.30;;;;;;;-146.64;68.96;38459.88;5019120;28;20034;-77
2022/05/04 07:14:22;;;;;;;13.05;4.18;;;;;;;-146.64;65.81;38449.66;5001877;28;20036;-76
2022/05/04 07:16:47;;;;;;;9.37;2.90;;;;;;;-146.64;57.56;38457.84;5016038;28;20034;-77
2022/05/04 07:19:16;;;;;;;13.93;3.50;;;;;;;-146.64;62.97;38490.59;5000802;28;20050;-78
2022/05/04 07:21:42;;;;;;;12.07;3.70;;;;;;;-146.64;62.51;38498.75;5020832;28;20025;-78
2022/05/04 07:24:08;;;;;;;;;;;;;;;-146.64;61.02;38437.38;5018083;28;20041;-77
2022/05/04 07:26:33;;;;;;;9.77;3.50;;;;;;;-146.64;62.79;38551.97;5003641;28;19917;-78
2022/05/04 07:28:59;;;;;;;9.53;3.10;;;;;;;-146.64;62.87;38644.03;5006246;28;20029;-80
2022/05/04 07:31:27;;;;;;;11.60;3.37;;;;;;;-146.64;65.81;38506.94;5031420;28;20069;-78
2022/05/04 07:33:52;;;;;;;12.73;3.38;;;;;;;-146.64;64.92;38582.66;5009243;28;20026;-77
2022/05/04 07:36:18;;;;;;;11.77;3.57;;;;;;;-146.64;70.80;38613.34;5004459;28;20045;-77
2022/05/04 07:38:43;;;;;;;10.67;3.53;;;;;;;-146.64;69.01;38535.59;5019421;28;20331;-77
2022/05/04 07:43:52;;;;;;;15.70;3.70;;;;;;;-146.64;69.16;38625.63;5026332;28;20033;-78
2022/05/04 07:46:18;;;;;;;15.67;4.07;;;;;;;-146.64;70.86;38556.06;5024231;28;20030;-78
2022/05/04 07:48:44;;;;;;;11.60;3.83;;;;;;;-146.64;73.31;38605.16;5007759;28;20033;-78
2022/05/04 07:51:09;;;;;;;25.27;4.20;;;;;;;-146.64;71.78;38644.03;5008784;28;20226;-77
2022/05/04 07:53:35;;;;;;;10.70;4.10;;;;;;;-146.64;74.95;38723.84;5031253;28;20014;-78
2022/05/04 07:56:00;;;;;;;15.90;4.37;;;;;;;-146.64;76.14;38674.75;5031334;28;20102;-78
2022/05/04 07:58:25;;;;;;;13.93;3.83;;;;;;;-146.64;72.73;38564.25;5029184;28;20046;-78
2022/05/04 08:06:19;;;;;;;16.20;4.57;;;;;;;-146.64;72.10;38592.88;5027381;28;20085;-77
2022/05/04 08:08:44;;;;;;;13.60;4.30;;;;;;;-146.64;71.67;38609.25;5008627;28;20030;-78
2022/05/04 08:11:12;;;;;;;17.13;4.57;;;;;;;-146.64;72.38;38633.81;5026419;28;20057;-77
2022/05/04 08:13:37;;;;;;;14.38;4.88;;;;;;;-146.64;73.59;38596.97;5011283;28;20033;-79
2022/05/04 08:16:04;;;;;;;13.37;4.60;;;;;;;-146.64;68.01;38590.84;5025442;28;20046;-77
2022/05/04 08:18:30;;;;;;;14.27;5.22;;;;;;;-146.64;71.36;38650.19;5015063;28;20040;-77
2022/05/04 08:20:55;;;;;;;16.63;4.93;;;;;;;-146.64;71.36;38631.78;5008699;28;20026;-79
2022/05/04 08:23:21;;;;;;;16.93;5.00;;;;;;;-146.64;72.49;38631.78;4993941;28;20108;-77
2022/05/04 08:25:46;;;;;;;20.07;5.27;;;;;;;-146.64;71.62;38687.03;4987225;28;20057;-78
2022/05/04 08:28:14;;;;;;;19.57;5.73;;;;;;;-146.64;71.50;38660.41;5035997;28;20088;-77
2022/05/04 08:30:40;;;;;;;9.00;4.68;;;;;;;-146.64;72.50;38621.53;4999124;28;20037;-80
2022/05/04 08:33:06;;;;;;;9.70;5.17;;;;;;;-146.64;70.17;38572.44;5012629;28;20034;-75
2022/05/04 08:35:32;;;;;;;13.90;6.32;;;;;;;-146.64;71.28;38646.09;4997148;28;20056;-74
2022/05/04 08:37:57;;;;;;;10.35;4.50;;;;;;;-146.64;71.76;38590.84;5023385;28;20084;-74
2022/05/04 08:40:23;;;;;;;14.33;5.07;;;;;;;-146.64;70.29;38551.97;5006108;28;20031;-77
2022/05/04 08:42:49;;;;;;;13.90;5.17;;;;;;;-146.64;66.59;38543.78;4997492;28;20088;-76
2022/05/04 08:45:14;;;;;;;13.07;5.15;;;;;;;-146.64;67.14;38570.38;5000648;28;20049;-76
2022/05/04 08:47:41;;;;;;;17.23;5.07;;;;;;;-146.64;67.16;38560.16;5009699;28;20040;-76
2022/05/04 08:50:12;;;;;;;9.95;4.55;;;;;;;-146.64;64.40;38551.97;5011590;28;20030;-78
2022/05/04 08:52:40;;;;;;;13.07;5.45;;;;;;;-146.64;65.84;38535.59;5006307;28;20053;-81
2022/05/04 08:55:06;;;;;;;11.85;5.38;;;;;;;-146.64;65.67;38601.06;5000092;28;20034;-80
2022/05/04 08:57:32;;;;;;;15.63;4.50;;;;;;;-146.64;67.06;38537.66;5004277;28;20029;-78
2022/05/04 08:59:57;;;;;;;11.67;4.90;;;;;;;-146.64;63.78;38466.03;5000287;28;20392;-77
2022/05/04 09:02:22;;;;;;;17.23;5.63;;;;;;;-146.64;64.52;38627.69;4992236;28;20354;-77
2022/05/04 09:04:48;;;;;;;15.30;5.23;;;;;;;-146.64;64.82;38588.81;4998891;28;20021;-77
2022/05/04 09:07:26;;;;;;;14.27;4.60;;;;;;;-146.64;63.07;38523.31;4986788;28;20033;-78
2022/05/04 09:09:53;;;;;;;14.60;4.90;;;;;;;-146.64;64.05;38480.34;5009170;28;20017;-78
2022/05/04 09:12:18;;;;;;;16.27;5.95;;;;;;;-146.64;63.05;38484.44;4968465;28;20144;-78
2022/05/04 09:14:44;;;;;;;13.37;5.40;;;;;;;-146.64;62.75;38562.19;5006216;28;20112;-78
2022/05/04 09:17:11;;;;;;;10.27;4.75;;;;;;;-146.64;63.13;38468.06;4998629;28;20061;-78
2022/05/04 09:19:37;;;;;;;17.40;5.10;;;;;;;-146.64;64.00;38506.94;5010065;28;20087;-78
2022/05/04 09:22:03;;;;;;;10.70;5.53;;;;;;;-146.64;63.10;38472.16;4996571;28;20041;-78
2022/05/04 09:24:29;;;;;;;12.53;5.33;;;;;;;-146.64;63.97;38537.66;5023313;28;20072;-78
2022/05/04 09:26:58;;;;;;;;;;;;;;;-146.64;62.04;38547.88;5023855;28;20141;-80
2022/05/04 09:29:34;;;;;;;13.32;5.45;;;;;;;-146.64;62.55;38533.56;5006853;28;20007;-77
2022/05/04 09:31:59;;;;;;;14.82;6.10;;;;;;;-146.64;62.53;38605.16;5013439;28;20460;-77
2022/05/04 09:34:33;;;;;;;21.43;6.97;;;;;;;-146.64;64.97;38619.50;4998730;28;20026;-77
2022/05/04 09:45:33;;;;;;;12.07;5.85;;;;;;;-146.64;62.45;38592.88;4998971;28;20488;-79
2022/05/04 09:47:59;;;;;;;14.67;5.70;;;;;;;-146.64;63.71;38558.09;4990869;28;20037;-78
2022/05/04 09:50:28;;;;;;;12.90;5.47;;;;;;;-146.64;63.62;38570.38;5008988;28;20033;-77
2022/05/04 09:52:56;;;;;;;22.25;6.45;;;;;;;-146.64;62.80;38584.72;4993890;28;20093;-78
2022/05/04 09:55:25;;;;;;;16.73;5.65;;;;;;;-146.64;62.63;38531.50;4991616;28;20071;-76
2022/05/04 09:57:52;;;;;;;12.38;6.15;;;;;;;-146.64;61.06;38515.13;5011429;28;20026;-76
2022/05/04 10:00:20;;;;;;;12.25;6.20;;;;;;;-146.64;62.06;38486.50;5012063;28;20028;-77
2022/05/04 10:02:46;;;;;;;13.15;6.22;;;;;;;-146.64;59.77;38437.38;5000956;28;20036;-76
2022/05/04 10:05:13;;;;;;;16.17;7.00;;;;;;;-146.64;58.36;38312.56;5019795;28;20037;-77
2022/05/04 10:07:39;;;;;;;13.30;7.03;;;;;;;-146.64;59.42;38390.31;4997868;28;20034;-77
2022/05/04 10:10:05;;;;;;;20.05;6.55;;;;;;;-146.64;58.24;38277.78;4992292;28;20381;-77
2022/05/04 10:12:31;;;;;;;12.35;6.05;;;;;;;-146.64;58.26;38271.66;5004922;28;20053;-76
2022/05/04 10:14:58;;;;;;;15.40;6.80;;;;;;;-146.64;56.30;38224.59;4984355;28;20497;-77
2022/05/04 10:17:25;;;;;;;16.30;7.32;;;;;;;-146.64;54.84;38312.56;5035031;28;20037;-79
2022/05/04 10:19:58;;;;;;;19.95;6.43;;;;;;;-146.64;55.48;38318.72;4988903;28;20603;-78
2022/05/04 10:22:31;;;;;;;13.75;6.32;;;;;;;-146.64;55.22;38236.88;4991049;28;20072;-77
2022/05/04 10:24:58;;;;;;;14.23;6.93;;;;;;;-146.64;55.02;38322.81;4982157;28;20497;-75
2022/05/04 10:27:27;;;;;;;15.52;6.50;;;;;;;-146.64;53.76;38230.72;5005483;28;20465;-73
2022/05/04 10:32:47;;;;;;;18.05;7.20;;;;;;;-146.64;52.99;38222.53;4993007;28;20124;-78
2022/05/04 10:35:20;;;;;;;15.73;6.85;;;;;;;-146.64;53.48;38097.75;5000665;28;20026;-76
2022/05/04 10:37:57;;;;;;;19.55;6.65;;;;;;;-146.64;53.63;38067.03;4993934;28;20029;-76
2022/05/04 10:40:44;;;;;;;22.80;7.50;;;;;;;-146.64;52.20;38040.44;5009355;28;20034;-75
2022/05/04 10:43:12;;;;;;;12.07;6.72;;;;;;;-146.64;50.81;38032.25;4995321;28;20064;-77
2022/05/04 10:45:42;;;;;;;21.13;6.82;;;;;;;-146.64;51.31;38089.56;5010107;28;20503;-77
2022/05/04 10:48:14;;;;;;;17.38;6.88;;;;;;;-146.64;51.10;38171.41;4990569;28;20030;-77
2022/05/04 10:50:51;;;;;;;21.27;7.38;;;;;;;-146.64;50.96;38101.81;5008462;28;20036;-77
2022/05/04 10:53:25;;;;;;;13.98;6.45;;;;;;;-146.64;51.63;38128.44;5001624;28;20171;-77
2022/05/04 10:56:00;;;;;;;20.70;8.20;;;;;;;-146.64;51.08;38232.78;5023412;28;20042;-75
2022/05/04 10:58:42;;;;;;;17.45;7.72;;;;;;;-146.64;49.90;38163.22;5006825;28;20040;-76
2022/05/04 11:01:21;;;;;;;18.40;7.53;;;;;;;-146.64;50.80;38120.25;5002471;28;20125;-77
2022/05/04 11:03:55;;;;;;;19.88;8.43;;;;;;;-146.64;50.78;38150.94;5006921;28;20541;-77
2022/05/04 11:06:46;;;;;;;19.70;7.13;;;;;;;-146.64;50.66;37934.06;5018509;28;20037;-77
2022/05/04 11:09:19;;;;;;;13.82;7.25;;;;;;;-146.64;48.27;38007.72;5007289;28;20033;-77
2022/05/04 11:11:50;;;;;;;19.42;7.38;;;;;;;-146.64;49.07;38007.72;5023294;28;20024;-76
2022/05/04 11:14:17;;;;;;;14.88;6.20;;;;;;;-146.64;47.77;37958.63;4995327;28;20030;-76
2022/05/04 11:16:45;;;;;;;14.93;7.05;;;;;;;-146.64;48.04;38032.25;4992751;28;20447;-78
2022/05/04 11:19:14;;;;;;;19.70;7.43;;;;;;;-146.64;48.37;37979.06;5016457;28;20032;-76
2022/05/04 11:21:40;;;;;;;13.93;6.60;;;;;;;-146.64;47.52;37956.56;5007570;28;20022;-77
2022/05/04 11:24:10;;;;;;;13.93;6.37;;;;;;;-146.64;46.26;37970.88;4990222;28;20127;-77
2022/05/04 11:26:44;;;;;;;21.08;7.35;;;;;;;-146.64;48.10;37856.31;5018095;28;20033;-76
2022/05/04 11:29:14;;;;;;;17.35;7.40;;;;;;;-146.64;46.65;37893.16;5010276;28;20025;-77
2022/05/04 11:31:45;;;;;;;11.10;6.35;;;;;;;-146.64;45.84;37821.53;4995819;28;20550;-77
2022/05/04 11:34:16;;;;;;;17.02;6.93;;;;;;;-146.64;45.76;37805.19;5002650;28;20029;-76
2022/05/04 11:36:44;;;;;;;22.52;7.82;;;;;;;-146.64;46.04;37749.94;5018509;28;20489;-77
2022/05/04 11:39:10;;;;;;;16.33;7.20;;;;;;;-146.64;44.82;37717.22;5003139;28;20381;-76
2022/05/04 11:41:38;;;;;;;14.20;8.17;;;;;;;-146.64;45.18;37725.38;5007615;28;20038;-79